sensor_id;sensor_type;location;lat;lon;timestamp;P1;durP1;ratioP1;P2;durP2;ratioP2
54599;SDS011;40500;51.084;16.958;2023-07-16T00:01:23;4.70;;;3.10;;
54599;SDS011;40500;51.084;16.958;2023-07-16T00:04:15;4.30;;;2.60;;
54599;SDS011;40500;51.084;16.958;2023-07-16T00:07:23;4.80;;;3.00;;
54599;SDS011;40500;51.084;16.958;2023-07-16T00:10:20;3.20;;;2.90;;
54599;SDS011;40500;51.084;16.958;2023-07-16T00:13:11;2.50;;;2.30;;
54599;SDS011;40500;51.084;16.958;2023-07-16T00:16:09;3.70;;;2.80;;
54599;SDS011;40500;51.084;16.958;2023-07-16T00:19:06;3.70;;;2.50;;
54599;SDS011;40500;51.084;16.958;2023-07-16T00:22:01;4.30;;;2.40;;
54599;SDS011;40500;51.084;16.958;2023-07-16T00:24:56;4.30;;;2.50;;
54599;SDS011;40500;51.084;16.958;2023-07-16T00:27:47;5.00;;;2.70;;
54599;SDS011;40500;51.084;16.958;2023-07-16T00:30:41;2.60;;;2.20;;
54599;SDS011;40500;51.084;16.958;2023-07-16T00:33:35;4.50;;;2.50;;
54599;SDS011;40500;51.084;16.958;2023-07-16T00:36:25;4.50;;;2.70;;
54599;SDS011;40500;51.084;16.958;2023-07-16T00:39:14;5.30;;;2.60;;
54599;SDS011;40500;51.084;16.958;2023-07-16T00:42:05;4.50;;;2.70;;
54599;SDS011;40500;51.084;16.958;2023-07-16T00:44:56;3.20;;;2.70;;
54599;SDS011;40500;51.084;16.958;2023-07-16T00:47:49;2.90;;;2.30;;
54599;SDS011;40500;51.084;16.958;2023-07-16T00:50:41;4.40;;;2.50;;
54599;SDS011;40500;51.084;16.958;2023-07-16T00:53:34;5.50;;;2.90;;
54599;SDS011;40500;51.084;16.958;2023-07-16T00:56:29;3.80;;;2.80;;
54599;SDS011;40500;51.084;16.958;2023-07-16T00:59:19;4.40;;;3.10;;
54599;SDS011;40500;51.084;16.958;2023-07-16T01:02:10;6.90;;;2.90;;
54599;SDS011;40500;51.084;16.958;2023-07-16T01:05:01;7.70;;;2.90;;
54599;SDS011;40500;51.084;16.958;2023-07-16T01:07:55;3.60;;;2.80;;
54599;SDS011;40500;51.084;16.958;2023-07-16T01:10:59;3.80;;;2.70;;
54599;SDS011;40500;51.084;16.958;2023-07-16T01:14:12;3.70;;;2.50;;
54599;SDS011;40500;51.084;16.958;2023-07-16T01:17:09;3.80;;;2.70;;
54599;SDS011;40500;51.084;16.958;2023-07-16T01:20:01;3.00;;;2.70;;
54599;SDS011;40500;51.084;16.958;2023-07-16T01:23:13;2.80;;;2.50;;
54599;SDS011;40500;51.084;16.958;2023-07-16T01:26:35;3.50;;;2.30;;
54599;SDS011;40500;51.084;16.958;2023-07-16T01:29:40;3.00;;;2.70;;
54599;SDS011;40500;51.084;16.958;2023-07-16T01:32:36;3.80;;;2.70;;
54599;SDS011;40500;51.084;16.958;2023-07-16T01:35:41;7.80;;;3.00;;
54599;SDS011;40500;51.084;16.958;2023-07-16T01:38:36;2.90;;;2.60;;
54599;SDS011;40500;51.084;16.958;2023-07-16T01:41:29;4.80;;;2.40;;
54599;SDS011;40500;51.084;16.958;2023-07-16T01:44:26;3.80;;;2.60;;
54599;SDS011;40500;51.084;16.958;2023-07-16T01:47:22;2.50;;;2.30;;
54599;SDS011;40500;51.084;16.958;2023-07-16T01:50:24;3.40;;;2.90;;
54599;SDS011;40500;51.084;16.958;2023-07-16T01:53:23;2.70;;;2.40;;
54599;SDS011;40500;51.084;16.958;2023-07-16T01:56:14;2.80;;;2.20;;
54599;SDS011;40500;51.084;16.958;2023-07-16T01:59:03;2.60;;;2.30;;
54599;SDS011;40500;51.084;16.958;2023-07-16T02:01:57;5.40;;;3.30;;
54599;SDS011;40500;51.084;16.958;2023-07-16T02:04:50;3.40;;;2.20;;
54599;SDS011;40500;51.084;16.958;2023-07-16T02:07:41;5.00;;;2.90;;
54599;SDS011;40500;51.084;16.958;2023-07-16T02:10:30;3.50;;;2.60;;
54599;SDS011;40500;51.084;16.958;2023-07-16T02:13:24;4.10;;;2.60;;
54599;SDS011;40500;51.084;16.958;2023-07-16T02:16:14;2.80;;;2.50;;
54599;SDS011;40500;51.084;16.958;2023-07-16T02:19:07;2.50;;;2.30;;
54599;SDS011;40500;51.084;16.958;2023-07-16T02:21:57;2.60;;;2.40;;
54599;SDS011;40500;51.084;16.958;2023-07-16T02:24:50;6.30;;;2.30;;
54599;SDS011;40500;51.084;16.958;2023-07-16T02:27:39;3.50;;;2.60;;
54599;SDS011;40500;51.084;16.958;2023-07-16T02:30:32;4.10;;;2.40;;
54599;SDS011;40500;51.084;16.958;2023-07-16T02:33:31;3.80;;;2.10;;
54599;SDS011;40500;51.084;16.958;2023-07-16T02:36:21;2.20;;;2.00;;
54599;SDS011;40500;51.084;16.958;2023-07-16T02:39:33;4.90;;;2.50;;
54599;SDS011;40500;51.084;16.958;2023-07-16T02:42:23;3.50;;;2.70;;
54599;SDS011;40500;51.084;16.958;2023-07-16T02:45:15;3.40;;;2.40;;
54599;SDS011;40500;51.084;16.958;2023-07-16T02:48:07;3.00;;;2.20;;
54599;SDS011;40500;51.084;16.958;2023-07-16T02:50:57;3.60;;;2.80;;
54599;SDS011;40500;51.084;16.958;2023-07-16T02:53:50;3.20;;;2.60;;
54599;SDS011;40500;51.084;16.958;2023-07-16T02:56:47;2.80;;;2.50;;
54599;SDS011;40500;51.084;16.958;2023-07-16T02:59:41;3.50;;;2.60;;
54599;SDS011;40500;51.084;16.958;2023-07-16T03:02:33;5.00;;;2.90;;
54599;SDS011;40500;51.084;16.958;2023-07-16T03:05:34;5.70;;;2.80;;
54599;SDS011;40500;51.084;16.958;2023-07-16T03:08:30;4.10;;;2.80;;
54599;SDS011;40500;51.084;16.958;2023-07-16T03:11:23;2.90;;;2.70;;
54599;SDS011;40500;51.084;16.958;2023-07-16T03:14:16;5.10;;;2.70;;
54599;SDS011;40500;51.084;16.958;2023-07-16T03:17:10;5.70;;;2.70;;
54599;SDS011;40500;51.084;16.958;2023-07-16T03:20:09;3.00;;;2.70;;
54599;SDS011;40500;51.084;16.958;2023-07-16T03:23:11;3.90;;;2.70;;
54599;SDS011;40500;51.084;16.958;2023-07-16T03:26:09;3.00;;;2.70;;
54599;SDS011;40500;51.084;16.958;2023-07-16T03:29:01;3.20;;;2.80;;
54599;SDS011;40500;51.084;16.958;2023-07-16T03:32:07;4.30;;;2.50;;
54599;SDS011;40500;51.084;16.958;2023-07-16T03:35:30;5.20;;;2.90;;
54599;SDS011;40500;51.084;16.958;2023-07-16T03:38:23;4.40;;;2.80;;
54599;SDS011;40500;51.084;16.958;2023-07-16T03:41:34;4.70;;;3.00;;
54599;SDS011;40500;51.084;16.958;2023-07-16T03:44:35;4.10;;;2.80;;
54599;SDS011;40500;51.084;16.958;2023-07-16T03:47:28;4.60;;;2.70;;
54599;SDS011;40500;51.084;16.958;2023-07-16T03:50:36;5.50;;;3.10;;
54599;SDS011;40500;51.084;16.958;2023-07-16T03:53:31;4.00;;;2.20;;
54599;SDS011;40500;51.084;16.958;2023-07-16T03:56:25;7.10;;;3.40;;
54599;SDS011;40500;51.084;16.958;2023-07-16T03:59:17;5.20;;;3.30;;
54599;SDS011;40500;51.084;16.958;2023-07-16T04:02:09;4.50;;;2.60;;
54599;SDS011;40500;51.084;16.958;2023-07-16T04:05:01;5.50;;;3.00;;
54599;SDS011;40500;51.084;16.958;2023-07-16T04:07:55;5.30;;;3.10;;
54599;SDS011;40500;51.084;16.958;2023-07-16T04:10:47;8.40;;;2.90;;
54599;SDS011;40500;51.084;16.958;2023-07-16T04:13:47;5.00;;;2.70;;
54599;SDS011;40500;51.084;16.958;2023-07-16T04:16:56;2.60;;;2.40;;
54599;SDS011;40500;51.084;16.958;2023-07-16T04:19:48;2.80;;;2.50;;
54599;SDS011;40500;51.084;16.958;2023-07-16T04:25:15;7.50;;;2.70;;
54599;SDS011;40500;51.084;16.958;2023-07-16T04:28:09;3.40;;;2.60;;
54599;SDS011;40500;51.084;16.958;2023-07-16T04:31:06;8.40;;;2.90;;
54599;SDS011;40500;51.084;16.958;2023-07-16T04:33:59;4.20;;;2.60;;
54599;SDS011;40500;51.084;16.958;2023-07-16T04:36:54;4.90;;;2.50;;
54599;SDS011;40500;51.084;16.958;2023-07-16T04:39:50;2.80;;;2.30;;
54599;SDS011;40500;51.084;16.958;2023-07-16T04:42:59;3.10;;;2.70;;
54599;SDS011;40500;51.084;16.958;2023-07-16T04:45:54;5.10;;;2.60;;
54599;SDS011;40500;51.084;16.958;2023-07-16T04:48:43;4.80;;;2.30;;
54599;SDS011;40500;51.084;16.958;2023-07-16T04:51:39;6.20;;;2.70;;
54599;SDS011;40500;51.084;16.958;2023-07-16T04:54:37;3.20;;;2.30;;
54599;SDS011;40500;51.084;16.958;2023-07-16T04:57:27;8.50;;;2.50;;
54599;SDS011;40500;51.084;16.958;2023-07-16T05:00:20;7.90;;;2.50;;
54599;SDS011;40500;51.084;16.958;2023-07-16T05:03:10;6.90;;;2.40;;
54599;SDS011;40500;51.084;16.958;2023-07-16T05:06:00;2.90;;;2.20;;
54599;SDS011;40500;51.084;16.958;2023-07-16T05:08:53;7.50;;;2.50;;
54599;SDS011;40500;51.084;16.958;2023-07-16T05:11:46;7.50;;;3.10;;
54599;SDS011;40500;51.084;16.958;2023-07-16T05:14:57;2.90;;;1.90;;
54599;SDS011;40500;51.084;16.958;2023-07-16T05:17:48;2.60;;;2.00;;
54599;SDS011;40500;51.084;16.958;2023-07-16T05:20:38;3.20;;;2.20;;
54599;SDS011;40500;51.084;16.958;2023-07-16T05:23:30;6.00;;;2.20;;
54599;SDS011;40500;51.084;16.958;2023-07-16T05:26:22;3.20;;;2.00;;
54599;SDS011;40500;51.084;16.958;2023-07-16T05:29:14;4.00;;;2.00;;
54599;SDS011;40500;51.084;16.958;2023-07-16T05:32:07;3.60;;;1.60;;
54599;SDS011;40500;51.084;16.958;2023-07-16T05:35:06;3.60;;;1.90;;
54599;SDS011;40500;51.084;16.958;2023-07-16T05:37:58;3.00;;;1.50;;
54599;SDS011;40500;51.084;16.958;2023-07-16T05:40:51;2.90;;;1.90;;
54599;SDS011;40500;51.084;16.958;2023-07-16T05:43:57;4.20;;;1.80;;
54599;SDS011;40500;51.084;16.958;2023-07-16T05:46:52;5.30;;;1.70;;
54599;SDS011;40500;51.084;16.958;2023-07-16T05:49:45;3.60;;;1.80;;
54599;SDS011;40500;51.084;16.958;2023-07-16T05:52:37;3.80;;;1.80;;
54599;SDS011;40500;51.084;16.958;2023-07-16T05:55:35;5.20;;;1.70;;
54599;SDS011;40500;51.084;16.958;2023-07-16T05:58:32;3.10;;;1.60;;
54599;SDS011;40500;51.084;16.958;2023-07-16T06:01:36;2.40;;;1.60;;
54599;SDS011;40500;51.084;16.958;2023-07-16T06:04:31;4.40;;;1.70;;
54599;SDS011;40500;51.084;16.958;2023-07-16T06:10:22;2.40;;;1.50;;
54599;SDS011;40500;51.084;16.958;2023-07-16T06:13:34;7.60;;;1.70;;
54599;SDS011;40500;51.084;16.958;2023-07-16T06:16:45;3.80;;;1.60;;
54599;SDS011;40500;51.084;16.958;2023-07-16T06:19:47;1.70;;;1.60;;
54599;SDS011;40500;51.084;16.958;2023-07-16T06:22:47;4.70;;;1.30;;
54599;SDS011;40500;51.084;16.958;2023-07-16T06:25:48;2.30;;;1.60;;
54599;SDS011;40500;51.084;16.958;2023-07-16T06:29:12;1.60;;;1.50;;
54599;SDS011;40500;51.084;16.958;2023-07-16T06:32:23;1.50;;;1.40;;
54599;SDS011;40500;51.084;16.958;2023-07-16T06:35:31;1.70;;;1.50;;
54599;SDS011;40500;51.084;16.958;2023-07-16T06:38:26;3.20;;;1.20;;
54599;SDS011;40500;51.084;16.958;2023-07-16T06:41:22;1.70;;;1.40;;
54599;SDS011;40500;51.084;16.958;2023-07-16T06:44:27;2.20;;;1.30;;
54599;SDS011;40500;51.084;16.958;2023-07-16T06:47:34;2.70;;;1.10;;
54599;SDS011;40500;51.084;16.958;2023-07-16T06:50:39;8.40;;;1.20;;
54599;SDS011;40500;51.084;16.958;2023-07-16T06:57:10;2.70;;;1.30;;
54599;SDS011;40500;51.084;16.958;2023-07-16T07:00:18;4.70;;;1.00;;
54599;SDS011;40500;51.084;16.958;2023-07-16T07:03:24;3.40;;;1.10;;
54599;SDS011;40500;51.084;16.958;2023-07-16T07:06:31;2.70;;;1.00;;
54599;SDS011;40500;51.084;16.958;2023-07-16T07:09:36;1.00;;;0.90;;
54599;SDS011;40500;51.084;16.958;2023-07-16T07:12:50;2.00;;;0.80;;
54599;SDS011;40500;51.084;16.958;2023-07-16T07:15:58;3.30;;;1.20;;
54599;SDS011;40500;51.084;16.958;2023-07-16T07:18:57;1.40;;;0.90;;
54599;SDS011;40500;51.084;16.958;2023-07-16T07:21:51;3.90;;;1.00;;
54599;SDS011;40500;51.084;16.958;2023-07-16T07:24:44;0.90;;;0.80;;
54599;SDS011;40500;51.084;16.958;2023-07-16T07:27:58;1.40;;;1.00;;
54599;SDS011;40500;51.084;16.958;2023-07-16T07:31:21;0.90;;;0.80;;
54599;SDS011;40500;51.084;16.958;2023-07-16T07:34:45;0.60;;;0.60;;
54599;SDS011;40500;51.084;16.958;2023-07-16T07:37:50;1.40;;;0.80;;
54599;SDS011;40500;51.084;16.958;2023-07-16T07:40:54;2.00;;;0.90;;
54599;SDS011;40500;51.084;16.958;2023-07-16T07:44:03;4.70;;;1.80;;
54599;SDS011;40500;51.084;16.958;2023-07-16T07:47:15;2.00;;;1.10;;
54599;SDS011;40500;51.084;16.958;2023-07-16T07:50:17;1.90;;;1.00;;
54599;SDS011;40500;51.084;16.958;2023-07-16T07:53:21;1.10;;;1.00;;
54599;SDS011;40500;51.084;16.958;2023-07-16T07:55:54;0.70;;;0.70;;
54599;SDS011;40500;51.084;16.958;2023-07-16T07:58:24;0.60;;;0.60;;
54599;SDS011;40500;51.084;16.958;2023-07-16T08:01:07;1.40;;;0.70;;
54599;SDS011;40500;51.084;16.958;2023-07-16T08:03:35;4.50;;;1.60;;
54599;SDS011;40500;51.084;16.958;2023-07-16T08:06:03;0.80;;;0.80;;
54599;SDS011;40500;51.084;16.958;2023-07-16T08:08:33;0.90;;;0.90;;
54599;SDS011;40500;51.084;16.958;2023-07-16T08:11:06;1.80;;;0.80;;
54599;SDS011;40500;51.084;16.958;2023-07-16T08:13:34;1.00;;;0.90;;
54599;SDS011;40500;51.084;16.958;2023-07-16T08:16:04;0.70;;;0.70;;
54599;SDS011;40500;51.084;16.958;2023-07-16T08:18:33;0.80;;;0.70;;
54599;SDS011;40500;51.084;16.958;2023-07-16T08:21:07;0.80;;;0.70;;
54599;SDS011;40500;51.084;16.958;2023-07-16T08:23:35;1.00;;;0.70;;
54599;SDS011;40500;51.084;16.958;2023-07-16T08:26:05;0.70;;;0.70;;
54599;SDS011;40500;51.084;16.958;2023-07-16T08:28:35;3.20;;;0.80;;
54599;SDS011;40500;51.084;16.958;2023-07-16T08:31:08;0.80;;;0.70;;
54599;SDS011;40500;51.084;16.958;2023-07-16T08:33:38;2.50;;;0.90;;
54599;SDS011;40500;51.084;16.958;2023-07-16T08:36:08;1.40;;;0.80;;
54599;SDS011;40500;51.084;16.958;2023-07-16T08:38:47;1.10;;;1.00;;
54599;SDS011;40500;51.084;16.958;2023-07-16T08:41:41;2.30;;;0.80;;
54599;SDS011;40500;51.084;16.958;2023-07-16T08:44:37;1.20;;;0.80;;
54599;SDS011;40500;51.084;16.958;2023-07-16T08:47:37;2.60;;;0.90;;
54599;SDS011;40500;51.084;16.958;2023-07-16T08:50:28;1.00;;;0.70;;
54599;SDS011;40500;51.084;16.958;2023-07-16T08:53:34;1.10;;;0.80;;
54599;SDS011;40500;51.084;16.958;2023-07-16T08:56:25;1.00;;;0.90;;
54599;SDS011;40500;51.084;16.958;2023-07-16T08:58:59;1.00;;;0.70;;
54599;SDS011;40500;51.084;16.958;2023-07-16T09:01:47;1.90;;;0.90;;
54599;SDS011;40500;51.084;16.958;2023-07-16T09:04:39;2.10;;;0.90;;
54599;SDS011;40500;51.084;16.958;2023-07-16T09:07:33;1.90;;;1.00;;
54599;SDS011;40500;51.084;16.958;2023-07-16T09:10:03;1.60;;;0.70;;
54599;SDS011;40500;51.084;16.958;2023-07-16T09:12:41;1.90;;;0.80;;
54599;SDS011;40500;51.084;16.958;2023-07-16T09:15:17;1.20;;;1.10;;
54599;SDS011;40500;51.084;16.958;2023-07-16T09:17:47;1.50;;;1.40;;
54599;SDS011;40500;51.084;16.958;2023-07-16T09:20:24;1.10;;;1.00;;
54599;SDS011;40500;51.084;16.958;2023-07-16T09:23:13;2.30;;;1.10;;
54599;SDS011;40500;51.084;16.958;2023-07-16T09:26:21;0.90;;;0.90;;
54599;SDS011;40500;51.084;16.958;2023-07-16T09:29:13;2.90;;;1.10;;
54599;SDS011;40500;51.084;16.958;2023-07-16T09:32:05;1.10;;;0.80;;
54599;SDS011;40500;51.084;16.958;2023-07-16T09:34:45;1.00;;;1.00;;
54599;SDS011;40500;51.084;16.958;2023-07-16T09:37:46;2.50;;;1.20;;
54599;SDS011;40500;51.084;16.958;2023-07-16T09:40:20;2.20;;;1.10;;
54599;SDS011;40500;51.084;16.958;2023-07-16T09:43:12;3.20;;;0.90;;
54599;SDS011;40500;51.084;16.958;2023-07-16T09:45:50;2.30;;;1.30;;
54599;SDS011;40500;51.084;16.958;2023-07-16T09:48:40;1.10;;;1.00;;
54599;SDS011;40500;51.084;16.958;2023-07-16T09:51:11;2.50;;;1.00;;
54599;SDS011;40500;51.084;16.958;2023-07-16T09:54:02;1.40;;;1.10;;
54599;SDS011;40500;51.084;16.958;2023-07-16T09:56:57;1.30;;;1.10;;
54599;SDS011;40500;51.084;16.958;2023-07-16T09:59:33;5.30;;;0.90;;
54599;SDS011;40500;51.084;16.958;2023-07-16T10:02:21;1.10;;;1.10;;
54599;SDS011;40500;51.084;16.958;2023-07-16T10:04:50;1.20;;;1.10;;
54599;SDS011;40500;51.084;16.958;2023-07-16T10:07:23;1.30;;;1.00;;
54599;SDS011;40500;51.084;16.958;2023-07-16T10:10:10;2.10;;;1.00;;
54599;SDS011;40500;51.084;16.958;2023-07-16T10:12:55;1.10;;;0.90;;
54599;SDS011;40500;51.084;16.958;2023-07-16T10:15:53;1.10;;;1.00;;
54599;SDS011;40500;51.084;16.958;2023-07-16T10:18:50;1.00;;;0.90;;
54599;SDS011;40500;51.084;16.958;2023-07-16T10:21:26;2.30;;;1.10;;
54599;SDS011;40500;51.084;16.958;2023-07-16T10:24:22;1.50;;;1.40;;
54599;SDS011;40500;51.084;16.958;2023-07-16T10:27:30;1.20;;;1.00;;
54599;SDS011;40500;51.084;16.958;2023-07-16T10:30:01;1.30;;;1.10;;
54599;SDS011;40500;51.084;16.958;2023-07-16T10:32:36;1.20;;;0.90;;
54599;SDS011;40500;51.084;16.958;2023-07-16T10:35:09;1.90;;;1.00;;
54599;SDS011;40500;51.084;16.958;2023-07-16T10:38:12;1.30;;;1.00;;
54599;SDS011;40500;51.084;16.958;2023-07-16T10:40:53;2.00;;;1.00;;
54599;SDS011;40500;51.084;16.958;2023-07-16T10:43:33;2.30;;;1.00;;
54599;SDS011;40500;51.084;16.958;2023-07-16T10:46:24;1.10;;;1.10;;
54599;SDS011;40500;51.084;16.958;2023-07-16T10:48:52;2.80;;;1.10;;
54599;SDS011;40500;51.084;16.958;2023-07-16T10:51:44;1.90;;;1.10;;
54599;SDS011;40500;51.084;16.958;2023-07-16T10:54:43;4.60;;;1.10;;
54599;SDS011;40500;51.084;16.958;2023-07-16T10:57:21;1.30;;;1.10;;
54599;SDS011;40500;51.084;16.958;2023-07-16T11:00:12;1.90;;;0.90;;
54599;SDS011;40500;51.084;16.958;2023-07-16T11:02:43;1.40;;;1.20;;
54599;SDS011;40500;51.084;16.958;2023-07-16T11:05:31;1.20;;;1.10;;
54599;SDS011;40500;51.084;16.958;2023-07-16T11:08:03;1.30;;;0.90;;
54599;SDS011;40500;51.084;16.958;2023-07-16T11:10:33;1.70;;;1.00;;
54599;SDS011;40500;51.084;16.958;2023-07-16T11:13:02;2.00;;;1.00;;
54599;SDS011;40500;51.084;16.958;2023-07-16T11:15:32;1.10;;;1.00;;
54599;SDS011;40500;51.084;16.958;2023-07-16T11:18:04;2.10;;;1.00;;
54599;SDS011;40500;51.084;16.958;2023-07-16T11:20:38;1.90;;;1.20;;
54599;SDS011;40500;51.084;16.958;2023-07-16T11:23:10;1.20;;;1.10;;
54599;SDS011;40500;51.084;16.958;2023-07-16T11:25:46;1.40;;;1.00;;
54599;SDS011;40500;51.084;16.958;2023-07-16T11:28:23;1.60;;;1.10;;
54599;SDS011;40500;51.084;16.958;2023-07-16T11:31:13;2.00;;;1.10;;
54599;SDS011;40500;51.084;16.958;2023-07-16T11:33:51;1.70;;;1.20;;
54599;SDS011;40500;51.084;16.958;2023-07-16T11:36:21;1.20;;;1.10;;
54599;SDS011;40500;51.084;16.958;2023-07-16T11:38:55;1.40;;;1.00;;
54599;SDS011;40500;51.084;16.958;2023-07-16T11:41:26;2.10;;;0.90;;
54599;SDS011;40500;51.084;16.958;2023-07-16T11:43:59;1.20;;;0.90;;
54599;SDS011;40500;51.084;16.958;2023-07-16T11:46:31;4.20;;;0.90;;
54599;SDS011;40500;51.084;16.958;2023-07-16T11:49:18;1.30;;;1.20;;
54599;SDS011;40500;51.084;16.958;2023-07-16T11:51:48;1.80;;;0.80;;
54599;SDS011;40500;51.084;16.958;2023-07-16T11:54:19;0.80;;;0.80;;
54599;SDS011;40500;51.084;16.958;2023-07-16T11:56:51;0.90;;;0.80;;
54599;SDS011;40500;51.084;16.958;2023-07-16T11:59:24;1.00;;;0.60;;
54599;SDS011;40500;51.084;16.958;2023-07-16T12:01:53;1.00;;;0.60;;
54599;SDS011;40500;51.084;16.958;2023-07-16T12:04:29;0.80;;;0.80;;
54599;SDS011;40500;51.084;16.958;2023-07-16T12:07:05;0.60;;;0.60;;
54599;SDS011;40500;51.084;16.958;2023-07-16T12:09:38;0.70;;;0.70;;
54599;SDS011;40500;51.084;16.958;2023-07-16T12:12:12;1.10;;;0.60;;
54599;SDS011;40500;51.084;16.958;2023-07-16T12:14:45;2.40;;;0.60;;
54599;SDS011;40500;51.084;16.958;2023-07-16T12:17:17;1.30;;;0.60;;
54599;SDS011;40500;51.084;16.958;2023-07-16T12:20:00;1.10;;;1.00;;
54599;SDS011;40500;51.084;16.958;2023-07-16T12:22:36;0.90;;;0.70;;
54599;SDS011;40500;51.084;16.958;2023-07-16T12:25:27;5.20;;;0.80;;
54599;SDS011;40500;51.084;16.958;2023-07-16T12:28:27;1.80;;;0.70;;
54599;SDS011;40500;51.084;16.958;2023-07-16T12:31:07;1.20;;;0.70;;
54599;SDS011;40500;51.084;16.958;2023-07-16T12:33:46;0.70;;;0.70;;
54599;SDS011;40500;51.084;16.958;2023-07-16T12:36:40;0.70;;;0.70;;
54599;SDS011;40500;51.084;16.958;2023-07-16T12:39:42;0.80;;;0.80;;
54599;SDS011;40500;51.084;16.958;2023-07-16T12:42:39;1.00;;;0.90;;
54599;SDS011;40500;51.084;16.958;2023-07-16T12:45:36;1.60;;;0.70;;
54599;SDS011;40500;51.084;16.958;2023-07-16T12:48:39;0.70;;;0.70;;
54599;SDS011;40500;51.084;16.958;2023-07-16T12:51:38;0.80;;;0.80;;
54599;SDS011;40500;51.084;16.958;2023-07-16T12:54:33;1.00;;;0.90;;
54599;SDS011;40500;51.084;16.958;2023-07-16T12:57:27;1.20;;;0.90;;
54599;SDS011;40500;51.084;16.958;2023-07-16T13:00:26;1.00;;;0.90;;
54599;SDS011;40500;51.084;16.958;2023-07-16T13:03:05;1.20;;;1.00;;
54599;SDS011;40500;51.084;16.958;2023-07-16T13:06:10;1.10;;;0.90;;
54599;SDS011;40500;51.084;16.958;2023-07-16T13:09:21;1.40;;;0.90;;
54599;SDS011;40500;51.084;16.958;2023-07-16T13:12:22;1.60;;;1.10;;
54599;SDS011;40500;51.084;16.958;2023-07-16T13:15:13;1.80;;;1.10;;
54599;SDS011;40500;51.084;16.958;2023-07-16T13:18:09;1.20;;;1.10;;
54599;SDS011;40500;51.084;16.958;2023-07-16T13:21:06;2.10;;;0.80;;
54599;SDS011;40500;51.084;16.958;2023-07-16T13:23:41;0.90;;;0.90;;
54599;SDS011;40500;51.084;16.958;2023-07-16T13:26:13;1.80;;;1.30;;
54599;SDS011;40500;51.084;16.958;2023-07-16T13:29:13;1.10;;;1.00;;
54599;SDS011;40500;51.084;16.958;2023-07-16T13:32:06;1.20;;;0.90;;
54599;SDS011;40500;51.084;16.958;2023-07-16T13:34:40;2.50;;;0.90;;
54599;SDS011;40500;51.084;16.958;2023-07-16T13:37:23;1.00;;;1.00;;
54599;SDS011;40500;51.084;16.958;2023-07-16T13:40:12;0.90;;;0.80;;
54599;SDS011;40500;51.084;16.958;2023-07-16T13:42:57;1.30;;;1.20;;
54599;SDS011;40500;51.084;16.958;2023-07-16T13:45:41;3.00;;;1.00;;
54599;SDS011;40500;51.084;16.958;2023-07-16T13:48:20;1.30;;;1.10;;
54599;SDS011;40500;51.084;16.958;2023-07-16T13:51:04;1.00;;;1.00;;
54599;SDS011;40500;51.084;16.958;2023-07-16T13:53:55;0.80;;;0.80;;
54599;SDS011;40500;51.084;16.958;2023-07-16T13:56:47;1.00;;;0.90;;
54599;SDS011;40500;51.084;16.958;2023-07-16T13:59:40;0.80;;;0.80;;
54599;SDS011;40500;51.084;16.958;2023-07-16T14:02:12;0.80;;;0.80;;
54599;SDS011;40500;51.084;16.958;2023-07-16T14:05:08;3.40;;;1.00;;
54599;SDS011;40500;51.084;16.958;2023-07-16T14:08:02;1.10;;;0.80;;
54599;SDS011;40500;51.084;16.958;2023-07-16T14:10:31;1.50;;;1.00;;
54599;SDS011;40500;51.084;16.958;2023-07-16T14:13:00;1.10;;;1.00;;
54599;SDS011;40500;51.084;16.958;2023-07-16T14:15:28;1.00;;;1.00;;
54599;SDS011;40500;51.084;16.958;2023-07-16T14:18:05;3.50;;;0.90;;
54599;SDS011;40500;51.084;16.958;2023-07-16T14:20:33;1.90;;;1.00;;
54599;SDS011;40500;51.084;16.958;2023-07-16T14:23:01;1.10;;;1.00;;
54599;SDS011;40500;51.084;16.958;2023-07-16T14:25:32;0.90;;;0.80;;
54599;SDS011;40500;51.084;16.958;2023-07-16T14:28:01;1.10;;;0.90;;
54599;SDS011;40500;51.084;16.958;2023-07-16T14:30:29;4.30;;;1.10;;
54599;SDS011;40500;51.084;16.958;2023-07-16T14:32:59;1.30;;;1.00;;
54599;SDS011;40500;51.084;16.958;2023-07-16T14:35:30;1.30;;;1.10;;
54599;SDS011;40500;51.084;16.958;2023-07-16T14:38:03;1.20;;;1.10;;
54599;SDS011;40500;51.084;16.958;2023-07-16T14:40:31;1.60;;;1.10;;
54599;SDS011;40500;51.084;16.958;2023-07-16T14:43:09;1.50;;;1.10;;
54599;SDS011;40500;51.084;16.958;2023-07-16T14:45:38;1.50;;;0.90;;
54599;SDS011;40500;51.084;16.958;2023-07-16T14:48:06;2.00;;;1.20;;
54599;SDS011;40500;51.084;16.958;2023-07-16T14:50:37;3.90;;;1.40;;
54599;SDS011;40500;51.084;16.958;2023-07-16T14:53:06;3.80;;;1.00;;
54599;SDS011;40500;51.084;16.958;2023-07-16T14:55:37;2.40;;;1.20;;
54599;SDS011;40500;51.084;16.958;2023-07-16T14:58:05;1.90;;;1.00;;
54599;SDS011;40500;51.084;16.958;2023-07-16T15:00:35;2.10;;;1.20;;
54599;SDS011;40500;51.084;16.958;2023-07-16T15:03:09;2.90;;;1.40;;
54599;SDS011;40500;51.084;16.958;2023-07-16T15:05:41;1.60;;;1.00;;
54599;SDS011;40500;51.084;16.958;2023-07-16T15:08:12;2.30;;;1.10;;
54599;SDS011;40500;51.084;16.958;2023-07-16T15:10:43;1.80;;;1.10;;
54599;SDS011;40500;51.084;16.958;2023-07-16T15:13:22;1.50;;;1.10;;
54599;SDS011;40500;51.084;16.958;2023-07-16T15:15:51;1.70;;;1.10;;
54599;SDS011;40500;51.084;16.958;2023-07-16T15:18:43;1.50;;;1.10;;
54599;SDS011;40500;51.084;16.958;2023-07-16T15:21:12;1.20;;;1.00;;
54599;SDS011;40500;51.084;16.958;2023-07-16T15:23:43;2.00;;;1.20;;
54599;SDS011;40500;51.084;16.958;2023-07-16T15:26:13;1.10;;;1.00;;
54599;SDS011;40500;51.084;16.958;2023-07-16T15:28:45;1.40;;;1.30;;
54599;SDS011;40500;51.084;16.958;2023-07-16T15:31:18;2.40;;;1.10;;
54599;SDS011;40500;51.084;16.958;2023-07-16T15:33:56;1.30;;;1.00;;
54599;SDS011;40500;51.084;16.958;2023-07-16T15:36:25;1.30;;;1.20;;
54599;SDS011;40500;51.084;16.958;2023-07-16T15:38:57;1.30;;;1.10;;
54599;SDS011;40500;51.084;16.958;2023-07-16T15:44:54;1.50;;;1.20;;
54599;SDS011;40500;51.084;16.958;2023-07-16T15:47:56;1.40;;;1.20;;
54599;SDS011;40500;51.084;16.958;2023-07-16T15:50:45;0.90;;;0.90;;
54599;SDS011;40500;51.084;16.958;2023-07-16T15:53:21;0.70;;;0.70;;
54599;SDS011;40500;51.084;16.958;2023-07-16T15:55:49;1.40;;;1.10;;
54599;SDS011;40500;51.084;16.958;2023-07-16T15:58:48;0.90;;;0.90;;
54599;SDS011;40500;51.084;16.958;2023-07-16T16:01:42;1.60;;;1.00;;
54599;SDS011;40500;51.084;16.958;2023-07-16T16:05:03;1.60;;;1.00;;
54599;SDS011;40500;51.084;16.958;2023-07-16T16:11:48;1.40;;;1.20;;
54599;SDS011;40500;51.084;16.958;2023-07-16T16:15:18;1.10;;;1.00;;
54599;SDS011;40500;51.084;16.958;2023-07-16T16:18:23;1.10;;;1.00;;
54599;SDS011;40500;51.084;16.958;2023-07-16T16:21:49;1.60;;;0.70;;
54599;SDS011;40500;51.084;16.958;2023-07-16T16:25:32;1.70;;;1.00;;
54599;SDS011;40500;51.084;16.958;2023-07-16T16:32:40;2.20;;;0.90;;
54599;SDS011;40500;51.084;16.958;2023-07-16T16:36:24;1.80;;;0.80;;
54599;SDS011;40500;51.084;16.958;2023-07-16T16:51:51;1.20;;;1.10;;
54599;SDS011;40500;51.084;16.958;2023-07-16T16:55:08;0.90;;;0.90;;
54599;SDS011;40500;51.084;16.958;2023-07-16T16:58:29;1.30;;;1.20;;
54599;SDS011;40500;51.084;16.958;2023-07-16T17:01:22;2.40;;;1.00;;
54599;SDS011;40500;51.084;16.958;2023-07-16T17:04:31;1.40;;;1.10;;
54599;SDS011;40500;51.084;16.958;2023-07-16T17:07:46;0.90;;;0.90;;
54599;SDS011;40500;51.084;16.958;2023-07-16T17:11:14;0.90;;;0.80;;
54599;SDS011;40500;51.084;16.958;2023-07-16T17:14:05;1.10;;;1.10;;
54599;SDS011;40500;51.084;16.958;2023-07-16T17:17:05;1.20;;;1.00;;
54599;SDS011;40500;51.084;16.958;2023-07-16T17:20:15;2.20;;;1.20;;